メインページ
METAR-TAF:

METAR-TAF

空港 :

ロサンゼルス国際空港

ロサンゼルス, カリフォルニア州, アメリカ合衆国

緯度: 33-56-17N, 経度: 118-23-20W, 海抜: 38m

現時点の気象観測

当レポートは1時間3分前の22:53(UTC)に作成
西/南西の風 13kt
気温 24°C
湿度 74%
気圧 1014 hPa
視程: 16.1km
高度1000ftの雲はほとんどない
高度9000ftの雲はほとんどない
高度25000ftの雲は散在している

METAR: KLAX 162253Z 25013KT 10SM FEW010 FEW090 SCT250 24/19 A2993 RMK AO2 SLP133 T02440189

時間: 16:56 (23:56 UTC)

予報

当レポートは36分前の23:20(UTC)に作成
予報は17日の 00時(UTC)から 18日の 06時(UTC)まで有効
西の風 12kt
視程: 10km
高度1200ftの雲は散在している
17日の 0500時(UTC)から
西/南西の風 8kt
視程: 10km
高度1000ftの千切れ雲あり
17日の 1300時(UTC)から
西の風 6kt
視程: 10km
高度1500ftの雲は散在している
17日の 2000時(UTC)から
西の風 12kt
視程: 10km
晴天

TAF: KLAX 162320Z 1700/1806 26012KT P6SM SCT012 FM170500 25008KT P6SM BKN010 FM171300 26006KT P6SM SCT015 FM172000 26012KT P6SM SKC

4,000以上の空港の気象観測と天気予報(METAR報とTAF報)

利用可能な観測所は地図上に黄色い丸と赤い丸で示す。

丸の上にカーソルを重ねると観測所名を参照できる。

次にクリックすると気象観測と天気予報を参照できる。

マップの切り替え:黒色「×」印の緑ボタンをクリックして拡大、「-」印の緑ボタンをクリックして縮小、緑色の三角印をクリックして隣りの地図に切り替え


METAR-TAF: